sensor_id;sensor_type;location;lat;lon;timestamp;temperature;humidity
7700;DHT22;3892;47.794;19.126;2022-12-07T00:00:53;11.60;41.50
7700;DHT22;3892;47.794;19.126;2022-12-07T00:03:20;11.70;41.50
7700;DHT22;3892;47.794;19.126;2022-12-07T00:05:47;11.60;41.40
7700;DHT22;3892;47.794;19.126;2022-12-07T00:08:14;11.50;41.50
7700;DHT22;3892;47.794;19.126;2022-12-07T00:10:42;11.50;42.20
7700;DHT22;3892;47.794;19.126;2022-12-07T00:13:09;11.50;41.70
7700;DHT22;3892;47.794;19.126;2022-12-07T00:15:36;11.50;41.70
7700;DHT22;3892;47.794;19.126;2022-12-07T00:18:03;11.50;41.50
7700;DHT22;3892;47.794;19.126;2022-12-07T00:20:30;11.50;41.20
7700;DHT22;3892;47.794;19.126;2022-12-07T00:22:58;11.50;41.10
7700;DHT22;3892;47.794;19.126;2022-12-07T00:25:25;11.50;41.00
7700;DHT22;3892;47.794;19.126;2022-12-07T00:27:54;11.50;40.90
7700;DHT22;3892;47.794;19.126;2022-12-07T00:30:22;11.50;40.70
7700;DHT22;3892;47.794;19.126;2022-12-07T00:32:49;11.40;40.80
7700;DHT22;3892;47.794;19.126;2022-12-07T00:35:16;11.40;40.70
7700;DHT22;3892;47.794;19.126;2022-12-07T00:37:43;11.40;40.80
7700;DHT22;3892;47.794;19.126;2022-12-07T00:40:11;11.40;40.60
7700;DHT22;3892;47.794;19.126;2022-12-07T00:42:38;11.40;40.50
7700;DHT22;3892;47.794;19.126;2022-12-07T00:45:08;11.40;40.40
7700;DHT22;3892;47.794;19.126;2022-12-07T00:47:35;11.30;40.20
7700;DHT22;3892;47.794;19.126;2022-12-07T00:50:02;11.30;40.20
7700;DHT22;3892;47.794;19.126;2022-12-07T00:52:29;11.20;40.30
7700;DHT22;3892;47.794;19.126;2022-12-07T00:54:56;11.20;40.20
7700;DHT22;3892;47.794;19.126;2022-12-07T00:57:23;11.10;40.20
7700;DHT22;3892;47.794;19.126;2022-12-07T00:59:50;11.10;40.50
7700;DHT22;3892;47.794;19.126;2022-12-07T01:02:22;11.00;40.60
7700;DHT22;3892;47.794;19.126;2022-12-07T01:04:49;10.90;40.80
7700;DHT22;3892;47.794;19.126;2022-12-07T01:07:16;10.80;40.80
7700;DHT22;3892;47.794;19.126;2022-12-07T01:09:43;10.80;41.00
7700;DHT22;3892;47.794;19.126;2022-12-07T01:12:10;10.80;40.50
7700;DHT22;3892;47.794;19.126;2022-12-07T01:14:37;10.70;40.50
7700;DHT22;3892;47.794;19.126;2022-12-07T01:17:04;10.70;40.70
7700;DHT22;3892;47.794;19.126;2022-12-07T01:19:32;10.70;40.70
7700;DHT22;3892;47.794;19.126;2022-12-07T01:21:59;10.70;40.50
7700;DHT22;3892;47.794;19.126;2022-12-07T01:24:26;10.70;40.50
7700;DHT22;3892;47.794;19.126;2022-12-07T01:26:53;10.80;40.50
7700;DHT22;3892;47.794;19.126;2022-12-07T01:29:20;10.80;40.20
7700;DHT22;3892;47.794;19.126;2022-12-07T01:31:48;10.80;40.30
7700;DHT22;3892;47.794;19.126;2022-12-07T01:34:16;10.80;40.30
7700;DHT22;3892;47.794;19.126;2022-12-07T01:36:44;10.80;40.20
7700;DHT22;3892;47.794;19.126;2022-12-07T01:39:11;10.80;40.10
7700;DHT22;3892;47.794;19.126;2022-12-07T01:41:40;10.90;40.00
7700;DHT22;3892;47.794;19.126;2022-12-07T01:44:18;10.90;40.00
7700;DHT22;3892;47.794;19.126;2022-12-07T01:46:47;10.90;40.00
7700;DHT22;3892;47.794;19.126;2022-12-07T01:49:22;10.80;40.10
7700;DHT22;3892;47.794;19.126;2022-12-07T01:51:54;10.90;40.20
7700;DHT22;3892;47.794;19.126;2022-12-07T01:54:22;10.90;40.40
7700;DHT22;3892;47.794;19.126;2022-12-07T01:56:52;10.80;40.40
7700;DHT22;3892;47.794;19.126;2022-12-07T01:59:22;10.90;40.60
7700;DHT22;3892;47.794;19.126;2022-12-07T02:01:51;10.90;40.60
7700;DHT22;3892;47.794;19.126;2022-12-07T02:04:18;10.90;40.70
7700;DHT22;3892;47.794;19.126;2022-12-07T02:06:47;10.80;40.70
7700;DHT22;3892;47.794;19.126;2022-12-07T02:09:15;10.80;40.70
7700;DHT22;3892;47.794;19.126;2022-12-07T02:11:42;10.90;40.80
7700;DHT22;3892;47.794;19.126;2022-12-07T02:14:09;10.90;40.90
7700;DHT22;3892;47.794;19.126;2022-12-07T02:16:44;10.80;40.80
7700;DHT22;3892;47.794;19.126;2022-12-07T02:19:37;10.90;40.90
7700;DHT22;3892;47.794;19.126;2022-12-07T02:22:23;10.80;41.00
7700;DHT22;3892;47.794;19.126;2022-12-07T02:25:05;10.50;40.80
7700;DHT22;3892;47.794;19.126;2022-12-07T02:27:44;10.50;41.10
7700;DHT22;3892;47.794;19.126;2022-12-07T02:30:14;10.40;41.20
7700;DHT22;3892;47.794;19.126;2022-12-07T02:32:46;10.40;41.30
7700;DHT22;3892;47.794;19.126;2022-12-07T02:35:18;10.40;41.50
7700;DHT22;3892;47.794;19.126;2022-12-07T02:37:53;10.50;41.70
7700;DHT22;3892;47.794;19.126;2022-12-07T02:40:28;10.50;42.20
7700;DHT22;3892;47.794;19.126;2022-12-07T02:43:00;10.60;41.60
7700;DHT22;3892;47.794;19.126;2022-12-07T02:45:31;10.60;41.60
7700;DHT22;3892;47.794;19.126;2022-12-07T02:48:00;10.70;41.50
7700;DHT22;3892;47.794;19.126;2022-12-07T02:50:27;10.70;41.40
7700;DHT22;3892;47.794;19.126;2022-12-07T02:52:55;10.70;41.60
7700;DHT22;3892;47.794;19.126;2022-12-07T02:55:26;10.70;41.70
7700;DHT22;3892;47.794;19.126;2022-12-07T02:58:06;10.70;41.50
7700;DHT22;3892;47.794;19.126;2022-12-07T03:00:44;10.60;41.30
7700;DHT22;3892;47.794;19.126;2022-12-07T03:03:14;10.70;41.50
7700;DHT22;3892;47.794;19.126;2022-12-07T03:05:50;10.60;41.40
7700;DHT22;3892;47.794;19.126;2022-12-07T03:08:25;10.70;41.50
7700;DHT22;3892;47.794;19.126;2022-12-07T03:10:56;10.70;41.50
7700;DHT22;3892;47.794;19.126;2022-12-07T03:13:29;10.80;41.60
7700;DHT22;3892;47.794;19.126;2022-12-07T03:16:03;10.80;41.50
7700;DHT22;3892;47.794;19.126;2022-12-07T03:18:38;10.80;41.30
7700;DHT22;3892;47.794;19.126;2022-12-07T03:21:11;10.80;41.40
7700;DHT22;3892;47.794;19.126;2022-12-07T03:23:43;10.80;41.40
7700;DHT22;3892;47.794;19.126;2022-12-07T03:26:12;10.90;41.60
7700;DHT22;3892;47.794;19.126;2022-12-07T03:28:45;10.90;41.70
7700;DHT22;3892;47.794;19.126;2022-12-07T03:31:18;10.90;41.70
7700;DHT22;3892;47.794;19.126;2022-12-07T03:33:51;10.90;41.80
7700;DHT22;3892;47.794;19.126;2022-12-07T03:36:24;10.90;41.80
7700;DHT22;3892;47.794;19.126;2022-12-07T03:38:57;10.90;41.80
7700;DHT22;3892;47.794;19.126;2022-12-07T03:41:30;10.90;41.90
7700;DHT22;3892;47.794;19.126;2022-12-07T03:43:58;10.80;41.90
7700;DHT22;3892;47.794;19.126;2022-12-07T03:46:34;10.80;42.00
7700;DHT22;3892;47.794;19.126;2022-12-07T03:49:08;10.80;42.00
7700;DHT22;3892;47.794;19.126;2022-12-07T03:51:42;10.90;42.00
7700;DHT22;3892;47.794;19.126;2022-12-07T03:54:13;10.80;41.80
7700;DHT22;3892;47.794;19.126;2022-12-07T03:56:43;10.80;41.90
7700;DHT22;3892;47.794;19.126;2022-12-07T03:59:11;10.80;41.90
7700;DHT22;3892;47.794;19.126;2022-12-07T04:01:43;10.80;42.10
7700;DHT22;3892;47.794;19.126;2022-12-07T04:04:10;10.80;42.00
7700;DHT22;3892;47.794;19.126;2022-12-07T04:06:37;10.80;42.10
7700;DHT22;3892;47.794;19.126;2022-12-07T04:09:04;10.80;42.20
7700;DHT22;3892;47.794;19.126;2022-12-07T04:11:31;10.90;42.20
7700;DHT22;3892;47.794;19.126;2022-12-07T04:13:58;10.90;42.20
7700;DHT22;3892;47.794;19.126;2022-12-07T04:16:44;11.00;42.20
7700;DHT22;3892;47.794;19.126;2022-12-07T04:19:11;11.00;42.30
7700;DHT22;3892;47.794;19.126;2022-12-07T04:21:38;10.90;42.20
7700;DHT22;3892;47.794;19.126;2022-12-07T04:24:06;10.90;42.30
7700;DHT22;3892;47.794;19.126;2022-12-07T04:26:33;10.90;42.10
7700;DHT22;3892;47.794;19.126;2022-12-07T04:29:00;10.90;42.20
7700;DHT22;3892;47.794;19.126;2022-12-07T04:31:27;10.90;42.20
7700;DHT22;3892;47.794;19.126;2022-12-07T04:33:56;10.90;42.00
7700;DHT22;3892;47.794;19.126;2022-12-07T04:36:23;10.80;41.90
7700;DHT22;3892;47.794;19.126;2022-12-07T04:38:52;10.80;42.00
7700;DHT22;3892;47.794;19.126;2022-12-07T04:41:19;10.70;42.10
7700;DHT22;3892;47.794;19.126;2022-12-07T04:43:53;10.80;42.20
7700;DHT22;3892;47.794;19.126;2022-12-07T04:46:21;10.80;42.10
7700;DHT22;3892;47.794;19.126;2022-12-07T04:48:48;10.80;41.90
7700;DHT22;3892;47.794;19.126;2022-12-07T04:51:19;10.90;42.10
7700;DHT22;3892;47.794;19.126;2022-12-07T04:53:46;10.90;42.10
7700;DHT22;3892;47.794;19.126;2022-12-07T04:56:14;10.80;41.90
7700;DHT22;3892;47.794;19.126;2022-12-07T04:58:42;10.80;42.00
7700;DHT22;3892;47.794;19.126;2022-12-07T05:01:09;10.70;42.00
7700;DHT22;3892;47.794;19.126;2022-12-07T05:03:37;10.60;42.00
7700;DHT22;3892;47.794;19.126;2022-12-07T05:06:05;10.50;42.00
7700;DHT22;3892;47.794;19.126;2022-12-07T05:08:34;10.50;42.30
7700;DHT22;3892;47.794;19.126;2022-12-07T05:11:01;10.60;42.50
7700;DHT22;3892;47.794;19.126;2022-12-07T05:13:29;10.60;42.40
7700;DHT22;3892;47.794;19.126;2022-12-07T05:15:56;10.60;42.50
7700;DHT22;3892;47.794;19.126;2022-12-07T05:18:23;10.60;42.50
7700;DHT22;3892;47.794;19.126;2022-12-07T05:20:50;10.70;42.60
7700;DHT22;3892;47.794;19.126;2022-12-07T05:23:18;10.70;42.50
7700;DHT22;3892;47.794;19.126;2022-12-07T05:25:46;10.80;42.40
7700;DHT22;3892;47.794;19.126;2022-12-07T05:28:13;10.80;42.40
7700;DHT22;3892;47.794;19.126;2022-12-07T05:30:40;10.90;42.50
7700;DHT22;3892;47.794;19.126;2022-12-07T05:33:07;10.90;42.50
7700;DHT22;3892;47.794;19.126;2022-12-07T05:35:34;10.80;42.50
7700;DHT22;3892;47.794;19.126;2022-12-07T05:38:03;10.80;42.70
7700;DHT22;3892;47.794;19.126;2022-12-07T05:40:30;10.90;42.70
7700;DHT22;3892;47.794;19.126;2022-12-07T05:42:58;10.90;42.70
7700;DHT22;3892;47.794;19.126;2022-12-07T05:45:25;10.80;42.70
7700;DHT22;3892;47.794;19.126;2022-12-07T05:47:52;10.80;42.80
7700;DHT22;3892;47.794;19.126;2022-12-07T05:50:19;10.80;42.60
7700;DHT22;3892;47.794;19.126;2022-12-07T05:52:59;10.70;42.50
7700;DHT22;3892;47.794;19.126;2022-12-07T05:55:26;10.60;42.70
7700;DHT22;3892;47.794;19.126;2022-12-07T05:57:53;10.50;42.90
7700;DHT22;3892;47.794;19.126;2022-12-07T06:00:39;10.60;43.20
7700;DHT22;3892;47.794;19.126;2022-12-07T06:03:06;10.50;43.20
7700;DHT22;3892;47.794;19.126;2022-12-07T06:05:34;10.50;43.20
7700;DHT22;3892;47.794;19.126;2022-12-07T06:08:01;10.50;43.30
7700;DHT22;3892;47.794;19.126;2022-12-07T06:10:28;10.60;43.30
7700;DHT22;3892;47.794;19.126;2022-12-07T06:12:55;10.60;43.20
7700;DHT22;3892;47.794;19.126;2022-12-07T06:15:21;10.60;43.20
7700;DHT22;3892;47.794;19.126;2022-12-07T06:17:50;10.70;43.30
7700;DHT22;3892;47.794;19.126;2022-12-07T06:20:17;10.80;43.40
7700;DHT22;3892;47.794;19.126;2022-12-07T06:22:44;10.80;43.40
7700;DHT22;3892;47.794;19.126;2022-12-07T06:25:11;10.70;43.40
7700;DHT22;3892;47.794;19.126;2022-12-07T06:27:39;10.80;43.50
7700;DHT22;3892;47.794;19.126;2022-12-07T06:30:07;10.80;43.60
7700;DHT22;3892;47.794;19.126;2022-12-07T06:32:36;10.80;43.60
7700;DHT22;3892;47.794;19.126;2022-12-07T06:35:04;10.90;43.50
7700;DHT22;3892;47.794;19.126;2022-12-07T06:37:31;10.80;43.50
7700;DHT22;3892;47.794;19.126;2022-12-07T06:39:58;10.90;43.50
7700;DHT22;3892;47.794;19.126;2022-12-07T06:42:25;10.90;43.40
7700;DHT22;3892;47.794;19.126;2022-12-07T06:44:52;11.00;43.40
7700;DHT22;3892;47.794;19.126;2022-12-07T06:47:19;11.00;43.40
7700;DHT22;3892;47.794;19.126;2022-12-07T06:49:46;10.90;43.30
7700;DHT22;3892;47.794;19.126;2022-12-07T06:52:15;11.00;43.60
7700;DHT22;3892;47.794;19.126;2022-12-07T06:54:42;10.90;43.30
7700;DHT22;3892;47.794;19.126;2022-12-07T06:57:10;10.90;43.50
7700;DHT22;3892;47.794;19.126;2022-12-07T06:59:37;11.00;43.70
7700;DHT22;3892;47.794;19.126;2022-12-07T07:02:05;10.90;43.60
7700;DHT22;3892;47.794;19.126;2022-12-07T07:04:32;11.00;43.80
7700;DHT22;3892;47.794;19.126;2022-12-07T07:06:59;11.00;43.70
7700;DHT22;3892;47.794;19.126;2022-12-07T07:09:27;11.10;43.70
7700;DHT22;3892;47.794;19.126;2022-12-07T07:11:54;11.10;43.60
7700;DHT22;3892;47.794;19.126;2022-12-07T07:14:21;11.10;43.50
7700;DHT22;3892;47.794;19.126;2022-12-07T07:16:48;11.10;43.60
7700;DHT22;3892;47.794;19.126;2022-12-07T07:19:15;11.00;43.40
7700;DHT22;3892;47.794;19.126;2022-12-07T07:21:42;11.10;43.50
7700;DHT22;3892;47.794;19.126;2022-12-07T07:24:09;11.20;43.50
7700;DHT22;3892;47.794;19.126;2022-12-07T07:26:38;11.20;43.30
7700;DHT22;3892;47.794;19.126;2022-12-07T07:29:05;11.30;43.40
7700;DHT22;3892;47.794;19.126;2022-12-07T07:31:32;11.30;43.20
7700;DHT22;3892;47.794;19.126;2022-12-07T07:34:01;11.30;43.10
7700;DHT22;3892;47.794;19.126;2022-12-07T07:36:28;11.40;43.10
7700;DHT22;3892;47.794;19.126;2022-12-07T07:38:54;11.40;43.00
7700;DHT22;3892;47.794;19.126;2022-12-07T07:41:22;11.30;43.00
7700;DHT22;3892;47.794;19.126;2022-12-07T07:43:50;11.30;43.10
7700;DHT22;3892;47.794;19.126;2022-12-07T07:46:17;11.40;43.10
7700;DHT22;3892;47.794;19.126;2022-12-07T07:48:44;11.40;43.10
7700;DHT22;3892;47.794;19.126;2022-12-07T07:51:11;11.50;43.00
7700;DHT22;3892;47.794;19.126;2022-12-07T07:53:38;11.50;42.90
7700;DHT22;3892;47.794;19.126;2022-12-07T07:56:05;11.60;43.00
7700;DHT22;3892;47.794;19.126;2022-12-07T07:58:32;11.60;42.90
7700;DHT22;3892;47.794;19.126;2022-12-07T08:01:05;11.60;42.60
7700;DHT22;3892;47.794;19.126;2022-12-07T08:03:32;11.60;42.50
7700;DHT22;3892;47.794;19.126;2022-12-07T08:05:59;11.70;42.50
7700;DHT22;3892;47.794;19.126;2022-12-07T08:08:26;11.60;42.30
7700;DHT22;3892;47.794;19.126;2022-12-07T08:10:53;11.70;42.50
7700;DHT22;3892;47.794;19.126;2022-12-07T08:13:20;11.70;42.40
7700;DHT22;3892;47.794;19.126;2022-12-07T08:15:48;11.70;42.50
7700;DHT22;3892;47.794;19.126;2022-12-07T08:18:16;11.70;42.30
7700;DHT22;3892;47.794;19.126;2022-12-07T08:20:43;11.70;42.30
7700;DHT22;3892;47.794;19.126;2022-12-07T08:23:10;11.70;42.10
7700;DHT22;3892;47.794;19.126;2022-12-07T08:25:38;11.70;42.10
7700;DHT22;3892;47.794;19.126;2022-12-07T08:28:05;11.80;42.10
7700;DHT22;3892;47.794;19.126;2022-12-07T08:30:32;11.80;42.00
7700;DHT22;3892;47.794;19.126;2022-12-07T08:32:59;11.80;41.90
7700;DHT22;3892;47.794;19.126;2022-12-07T08:35:27;11.90;41.90
7700;DHT22;3892;47.794;19.126;2022-12-07T08:37:54;11.90;41.80
7700;DHT22;3892;47.794;19.126;2022-12-07T08:40:23;12.10;42.00
7700;DHT22;3892;47.794;19.126;2022-12-07T08:42:50;12.20;42.00
7700;DHT22;3892;47.794;19.126;2022-12-07T08:45:19;12.20;41.60
7700;DHT22;3892;47.794;19.126;2022-12-07T08:47:49;12.40;41.90
7700;DHT22;3892;47.794;19.126;2022-12-07T08:50:17;12.40;41.40
7700;DHT22;3892;47.794;19.126;2022-12-07T08:52:48;12.50;41.00
7700;DHT22;3892;47.794;19.126;2022-12-07T08:55:17;12.90;41.00
7700;DHT22;3892;47.794;19.126;2022-12-07T08:57:44;13.40;40.40
7700;DHT22;3892;47.794;19.126;2022-12-07T09:00:12;13.80;39.70
7700;DHT22;3892;47.794;19.126;2022-12-07T09:02:40;14.40;39.50
7700;DHT22;3892;47.794;19.126;2022-12-07T09:05:08;15.00;39.00
7700;DHT22;3892;47.794;19.126;2022-12-07T09:07:35;15.80;38.90
7700;DHT22;3892;47.794;19.126;2022-12-07T09:10:06;16.60;63.30
7700;DHT22;3892;47.794;19.126;2022-12-07T09:12:33;17.20;56.70
7700;DHT22;3892;47.794;19.126;2022-12-07T09:15:04;18.10;56.10
7700;DHT22;3892;47.794;19.126;2022-12-07T09:17:32;18.90;53.10
7700;DHT22;3892;47.794;19.126;2022-12-07T09:20:00;19.60;52.30
7700;DHT22;3892;47.794;19.126;2022-12-07T09:22:28;20.30;34.20
7700;DHT22;3892;47.794;19.126;2022-12-07T09:24:56;21.00;33.00
7700;DHT22;3892;47.794;19.126;2022-12-07T09:27:24;21.60;32.20
7700;DHT22;3892;47.794;19.126;2022-12-07T09:29:51;22.00;32.40
7700;DHT22;3892;47.794;19.126;2022-12-07T09:32:19;22.00;31.40
7700;DHT22;3892;47.794;19.126;2022-12-07T09:34:46;22.40;32.00
7700;DHT22;3892;47.794;19.126;2022-12-07T09:37:13;22.50;31.60
7700;DHT22;3892;47.794;19.126;2022-12-07T09:39:40;23.00;30.70
7700;DHT22;3892;47.794;19.126;2022-12-07T09:44:40;24.10;30.00
7700;DHT22;3892;47.794;19.126;2022-12-07T09:47:09;24.60;29.80
7700;DHT22;3892;47.794;19.126;2022-12-07T09:49:36;24.80;29.30
7700;DHT22;3892;47.794;19.126;2022-12-07T09:52:17;25.30;29.00
7700;DHT22;3892;47.794;19.126;2022-12-07T09:54:47;25.60;28.80
7700;DHT22;3892;47.794;19.126;2022-12-07T09:57:15;26.10;28.80
7700;DHT22;3892;47.794;19.126;2022-12-07T09:59:43;26.30;28.20
7700;DHT22;3892;47.794;19.126;2022-12-07T10:02:25;26.10;28.10
7700;DHT22;3892;47.794;19.126;2022-12-07T10:04:53;25.20;28.20
7700;DHT22;3892;47.794;19.126;2022-12-07T10:07:20;24.30;28.60
7700;DHT22;3892;47.794;19.126;2022-12-07T10:09:47;23.70;29.00
7700;DHT22;3892;47.794;19.126;2022-12-07T10:12:14;23.00;29.10
7700;DHT22;3892;47.794;19.126;2022-12-07T10:14:54;22.30;29.20
7700;DHT22;3892;47.794;19.126;2022-12-07T10:17:31;21.40;29.60
7700;DHT22;3892;47.794;19.126;2022-12-07T10:20:14;20.80;30.00
7700;DHT22;3892;47.794;19.126;2022-12-07T10:22:55;20.00;30.40
7700;DHT22;3892;47.794;19.126;2022-12-07T10:25:26;19.30;30.70
7700;DHT22;3892;47.794;19.126;2022-12-07T10:28:12;18.90;31.50
7700;DHT22;3892;47.794;19.126;2022-12-07T10:30:53;18.20;31.60
7700;DHT22;3892;47.794;19.126;2022-12-07T10:33:34;17.80;32.00
7700;DHT22;3892;47.794;19.126;2022-12-07T10:36:17;17.30;32.40
7700;DHT22;3892;47.794;19.126;2022-12-07T10:38:46;16.90;32.80
7700;DHT22;3892;47.794;19.126;2022-12-07T10:41:14;16.50;32.90
7700;DHT22;3892;47.794;19.126;2022-12-07T10:43:52;16.20;33.20
7700;DHT22;3892;47.794;19.126;2022-12-07T10:46:32;15.90;34.20
7700;DHT22;3892;47.794;19.126;2022-12-07T10:49:24;15.70;58.00
7700;DHT22;3892;47.794;19.126;2022-12-07T10:51:55;15.60;66.70
7700;DHT22;3892;47.794;19.126;2022-12-07T12:19:24;18.10;53.70
7700;DHT22;3892;47.794;19.126;2022-12-07T12:21:56;18.00;53.10
7700;DHT22;3892;47.794;19.126;2022-12-07T12:24:27;18.00;52.60
7700;DHT22;3892;47.794;19.126;2022-12-07T12:26:59;17.90;52.00
7700;DHT22;3892;47.794;19.126;2022-12-07T12:29:32;17.80;52.10
7700;DHT22;3892;47.794;19.126;2022-12-07T12:32:12;17.80;52.50
7700;DHT22;3892;47.794;19.126;2022-12-07T12:34:58;17.90;52.30
7700;DHT22;3892;47.794;19.126;2022-12-07T12:37:45;18.00;52.30
7700;DHT22;3892;47.794;19.126;2022-12-07T12:40:41;18.00;52.00
7700;DHT22;3892;47.794;19.126;2022-12-07T12:43:44;17.90;51.90
7700;DHT22;3892;47.794;19.126;2022-12-07T13:03:27;16.90;52.80
7700;DHT22;3892;47.794;19.126;2022-12-07T13:06:17;15.60;53.20
7700;DHT22;3892;47.794;19.126;2022-12-07T13:08:44;15.40;53.80
7700;DHT22;3892;47.794;19.126;2022-12-07T13:11:25;15.10;56.50
7700;DHT22;3892;47.794;19.126;2022-12-07T13:17:09;14.80;51.40
7700;DHT22;3892;47.794;19.126;2022-12-07T13:19:58;14.70;50.80
7700;DHT22;3892;47.794;19.126;2022-12-07T13:22:43;14.60;51.60
7700;DHT22;3892;47.794;19.126;2022-12-07T13:25:26;14.50;53.20
7700;DHT22;3892;47.794;19.126;2022-12-07T13:27:59;13.70;57.90
7700;DHT22;3892;47.794;19.126;2022-12-07T13:30:29;14.50;56.50
7700;DHT22;3892;47.794;19.126;2022-12-07T13:32:58;14.20;52.00
7700;DHT22;3892;47.794;19.126;2022-12-07T13:35:31;14.10;34.60
7700;DHT22;3892;47.794;19.126;2022-12-07T13:37:59;14.10;34.90
7700;DHT22;3892;47.794;19.126;2022-12-07T13:40:27;14.00;34.80
7700;DHT22;3892;47.794;19.126;2022-12-07T13:42:59;14.10;35.00
7700;DHT22;3892;47.794;19.126;2022-12-07T13:45:28;14.10;34.90
7700;DHT22;3892;47.794;19.126;2022-12-07T13:48:19;14.30;35.60
7700;DHT22;3892;47.794;19.126;2022-12-07T13:50:53;14.20;34.70
7700;DHT22;3892;47.794;19.126;2022-12-07T13:53:21;14.20;34.80
7700;DHT22;3892;47.794;19.126;2022-12-07T13:55:48;14.00;34.60
7700;DHT22;3892;47.794;19.126;2022-12-07T13:58:16;14.00;35.10
7700;DHT22;3892;47.794;19.126;2022-12-07T14:00:43;13.90;35.70
7700;DHT22;3892;47.794;19.126;2022-12-07T14:03:28;13.90;35.20
7700;DHT22;3892;47.794;19.126;2022-12-07T14:06:15;13.70;35.40
7700;DHT22;3892;47.794;19.126;2022-12-07T14:08:44;13.60;35.70
7700;DHT22;3892;47.794;19.126;2022-12-07T14:11:16;13.60;35.80
7700;DHT22;3892;47.794;19.126;2022-12-07T14:13:58;13.60;35.90
7700;DHT22;3892;47.794;19.126;2022-12-07T14:16:27;13.70;36.10
7700;DHT22;3892;47.794;19.126;2022-12-07T14:18:57;13.70;36.10
7700;DHT22;3892;47.794;19.126;2022-12-07T14:21:26;13.60;35.90
7700;DHT22;3892;47.794;19.126;2022-12-07T14:24:14;13.60;36.00
7700;DHT22;3892;47.794;19.126;2022-12-07T14:26:42;13.50;36.10
7700;DHT22;3892;47.794;19.126;2022-12-07T14:29:21;13.60;36.80
7700;DHT22;3892;47.794;19.126;2022-12-07T14:31:49;13.60;36.20
7700;DHT22;3892;47.794;19.126;2022-12-07T14:34:19;13.60;36.30
7700;DHT22;3892;47.794;19.126;2022-12-07T14:36:46;13.50;36.40
7700;DHT22;3892;47.794;19.126;2022-12-07T14:39:13;13.50;36.50
7700;DHT22;3892;47.794;19.126;2022-12-07T14:41:40;13.50;36.40
7700;DHT22;3892;47.794;19.126;2022-12-07T14:44:20;13.50;36.40
7700;DHT22;3892;47.794;19.126;2022-12-07T14:46:49;13.40;36.30
7700;DHT22;3892;47.794;19.126;2022-12-07T14:49:18;13.40;36.30
7700;DHT22;3892;47.794;19.126;2022-12-07T14:51:46;13.40;36.40
7700;DHT22;3892;47.794;19.126;2022-12-07T14:54:16;13.30;36.30
7700;DHT22;3892;47.794;19.126;2022-12-07T14:56:45;13.30;36.40
7700;DHT22;3892;47.794;19.126;2022-12-07T14:59:15;13.30;36.50
7700;DHT22;3892;47.794;19.126;2022-12-07T15:01:42;13.30;36.50
7700;DHT22;3892;47.794;19.126;2022-12-07T15:04:09;13.30;36.60
7700;DHT22;3892;47.794;19.126;2022-12-07T15:06:37;13.20;36.70
7700;DHT22;3892;47.794;19.126;2022-12-07T15:09:05;13.20;36.70
7700;DHT22;3892;47.794;19.126;2022-12-07T15:11:32;13.20;36.70
7700;DHT22;3892;47.794;19.126;2022-12-07T15:13:59;13.20;36.80
7700;DHT22;3892;47.794;19.126;2022-12-07T15:16:39;13.10;36.80
7700;DHT22;3892;47.794;19.126;2022-12-07T15:19:13;13.10;36.90
7700;DHT22;3892;47.794;19.126;2022-12-07T15:21:42;13.10;36.90
7700;DHT22;3892;47.794;19.126;2022-12-07T15:24:10;13.00;36.90
7700;DHT22;3892;47.794;19.126;2022-12-07T15:26:38;13.00;37.00
7700;DHT22;3892;47.794;19.126;2022-12-07T15:29:05;13.00;37.20
7700;DHT22;3892;47.794;19.126;2022-12-07T15:31:33;13.00;37.40
7700;DHT22;3892;47.794;19.126;2022-12-07T15:34:00;12.90;37.40
7700;DHT22;3892;47.794;19.126;2022-12-07T15:36:30;12.90;37.50
7700;DHT22;3892;47.794;19.126;2022-12-07T15:38:59;12.90;37.40
7700;DHT22;3892;47.794;19.126;2022-12-07T15:41:26;12.80;37.40
7700;DHT22;3892;47.794;19.126;2022-12-07T15:43:53;12.80;37.50
7700;DHT22;3892;47.794;19.126;2022-12-07T15:46:39;12.80;37.40
7700;DHT22;3892;47.794;19.126;2022-12-07T15:49:10;12.70;37.30
7700;DHT22;3892;47.794;19.126;2022-12-07T15:51:37;12.70;37.30
7700;DHT22;3892;47.794;19.126;2022-12-07T15:54:06;12.70;37.20
7700;DHT22;3892;47.794;19.126;2022-12-07T15:56:33;12.60;37.10
7700;DHT22;3892;47.794;19.126;2022-12-07T15:59:00;12.60;37.20
7700;DHT22;3892;47.794;19.126;2022-12-07T16:01:27;12.60;37.70
7700;DHT22;3892;47.794;19.126;2022-12-07T16:03:54;12.50;37.00
7700;DHT22;3892;47.794;19.126;2022-12-07T16:06:21;12.40;37.00
7700;DHT22;3892;47.794;19.126;2022-12-07T16:08:48;12.40;37.30
7700;DHT22;3892;47.794;19.126;2022-12-07T16:11:16;12.30;37.40
7700;DHT22;3892;47.794;19.126;2022-12-07T16:13:43;12.30;37.50
7700;DHT22;3892;47.794;19.126;2022-12-07T16:16:12;12.30;37.30
7700;DHT22;3892;47.794;19.126;2022-12-07T16:18:41;12.20;37.20
7700;DHT22;3892;47.794;19.126;2022-12-07T16:21:08;12.20;37.10
7700;DHT22;3892;47.794;19.126;2022-12-07T16:23:35;12.10;36.90
7700;DHT22;3892;47.794;19.126;2022-12-07T16:26:06;12.10;36.90
7700;DHT22;3892;47.794;19.126;2022-12-07T16:28:35;12.10;37.10
7700;DHT22;3892;47.794;19.126;2022-12-07T16:31:04;11.90;37.10
7700;DHT22;3892;47.794;19.126;2022-12-07T16:33:33;11.90;37.40
7700;DHT22;3892;47.794;19.126;2022-12-07T16:36:01;11.90;37.60
7700;DHT22;3892;47.794;19.126;2022-12-07T16:38:28;11.80;37.60
7700;DHT22;3892;47.794;19.126;2022-12-07T16:40:55;11.80;37.80
7700;DHT22;3892;47.794;19.126;2022-12-07T16:43:22;11.70;37.70
7700;DHT22;3892;47.794;19.126;2022-12-07T16:45:50;11.70;37.60
7700;DHT22;3892;47.794;19.126;2022-12-07T16:48:18;11.60;37.40
7700;DHT22;3892;47.794;19.126;2022-12-07T16:50:45;11.60;37.30
7700;DHT22;3892;47.794;19.126;2022-12-07T16:53:14;11.60;37.30
7700;DHT22;3892;47.794;19.126;2022-12-07T16:55:43;11.50;37.40
7700;DHT22;3892;47.794;19.126;2022-12-07T16:58:11;11.40;37.60
7700;DHT22;3892;47.794;19.126;2022-12-07T17:00:39;11.40;37.80
7700;DHT22;3892;47.794;19.126;2022-12-07T17:03:08;11.40;37.90
7700;DHT22;3892;47.794;19.126;2022-12-07T17:05:38;11.30;38.00
7700;DHT22;3892;47.794;19.126;2022-12-07T17:08:05;11.30;38.10
7700;DHT22;3892;47.794;19.126;2022-12-07T17:10:33;11.30;37.60
7700;DHT22;3892;47.794;19.126;2022-12-07T17:13:01;11.30;37.50
7700;DHT22;3892;47.794;19.126;2022-12-07T17:15:56;11.30;37.70
7700;DHT22;3892;47.794;19.126;2022-12-07T17:18:23;11.20;37.70
7700;DHT22;3892;47.794;19.126;2022-12-07T17:20:50;11.20;37.80
7700;DHT22;3892;47.794;19.126;2022-12-07T17:23:18;11.20;37.70
7700;DHT22;3892;47.794;19.126;2022-12-07T17:25:45;11.20;37.30
7700;DHT22;3892;47.794;19.126;2022-12-07T17:28:12;11.20;37.00
7700;DHT22;3892;47.794;19.126;2022-12-07T17:30:39;11.20;36.70
7700;DHT22;3892;47.794;19.126;2022-12-07T17:33:06;11.10;36.80
7700;DHT22;3892;47.794;19.126;2022-12-07T17:35:34;11.10;36.90
7700;DHT22;3892;47.794;19.126;2022-12-07T17:38:01;11.10;36.90
7700;DHT22;3892;47.794;19.126;2022-12-07T17:40:28;11.00;36.80
7700;DHT22;3892;47.794;19.126;2022-12-07T17:42:55;11.00;36.60
7700;DHT22;3892;47.794;19.126;2022-12-07T17:45:22;11.00;36.60
7700;DHT22;3892;47.794;19.126;2022-12-07T17:47:49;11.00;36.40
7700;DHT22;3892;47.794;19.126;2022-12-07T17:50:17;10.90;36.30